HEPSHETR

Guest
Details From HEPS - PORT SAID
To HETR - EL TOR
Flight Number -
Tags generated
Created
Modified
Stats Distance 201 nm / 372 km
Max Altitude 19,900 ft / 6,066 m
Waypoints 3
Social Downloads 0
Likes 0
Share VATSIM

Download

Looking for another format? Having issues loading an existing format? Contact us
Advertisement - Login to hide

Notes

Basic altitude profile: - Ascent Rate: 2500ft/min - Ascent Speed: 250kts - Cruise Altitude: 35000ft - Cruise Speed: 420kts - Descent Rate: 1500ft/min - Descent Speed: 250kts Options: - Use NATs: yes - Use PACOTS: yes - Use low airways: yes - Use high airways: no

Route

HEPS SISIK HETR

ID Type Via Altitude Latitude Longitude Leg Dist Tot Dist Heading (true) Name
O HEPS APT - 0 ft / 0 m 31.27939˚ 32.24006˚ - 0 nm - PORT SAID
SISIK FIX - 19,900 ft / 6,066 m 29.60000˚ 32.68500˚ 103 nm 103 nm 167° / 167° -
O HETR APT - 0 ft / 0 m 28.20898˚ 33.64551˚ 97 nm 201 nm 149° / 149° EL TOR

Altitude Profile

Advertisement - Login to hide

Weather


0- 5 10 15 20 25 30 35+ Temperature / ° C

Clouds and Precipitation
Forecast for 2017-12-12 06:00 UTC. Updated 2 hours ago

Ground ~20,000 ft ~40,000 ft Winds

HEPS

Details ICAO HEPS (PSD)
Name PORT SAID
Region Egypt
Timezone Africa/Cairo (UTC+2.0)
Stats Elevation 8 ft / 2 m (AMSL)
Location 31.279393° 32.240063°
Runways 1
Magnetic Variation 4.542° E

METAR

HEPS 120600Z 07005KT CAVOK 18/14 Q1019 NOSIG

Decode

TAF

Not found

Departure Runways

ID Width Length Bearing (true) Bearing (mag) Surface Threshold Offset Overrun Length
10 148 ft / 45 m 7,697 ft / 2,346 m 105.87° 101.33° Asphalt 0 ft / 0 m 200 ft / 61 m
28 148 ft / 45 m 7,697 ft / 2,346 m 285.88° 281.34° Asphalt 0 ft / 0 m 200 ft / 61 m

HETR

Details ICAO HETR (ELT)
Name EL TOR
Region Egypt
Timezone Africa/Cairo (UTC+2.0)
Stats Elevation 115 ft / 35 m (AMSL)
Location 28.208982° 33.645505°
Runways 1
Magnetic Variation 4.298° E

METAR

HETR 120600Z 35004KT CAVOK 15/M00 Q1019

Decode

TAF

Not found

Destination Runways

ID Width Length Bearing (true) Bearing (mag) Surface Threshold Offset Overrun Length
10 148 ft / 45 m 9,831 ft / 2,996 m 104.27° 99.97° Asphalt 0 ft / 0 m 210 ft / 64 m
28 148 ft / 45 m 9,831 ft / 2,996 m 284.28° 279.98° Asphalt 0 ft / 0 m 210 ft / 64 m

Popular Alternatives